Time;durP1;ratioP1;P1;durP2;ratioP2;P2;SDS_P1;SDS_P2;PMS_P1;PMS_P2;Temp;Humidity;BMP_temperature;BMP_pressure;BME280_temperature;BME280_humidity;BME280_pressure;Samples;Min_cycle;Max_cycle;Signal;HPM_P1;HPM_P2
2023/05/22 00:01:36;;;;;;;6.50;3.30;;;;;;;14.29;57.46;98903.97;435536;1253;108130;-42
2023/05/22 00:11:40;;;;;;;5.10;3.80;;;;;;;14.10;57.84;98895.99;435337;1263;99261;-43
2023/05/22 00:31:47;;;;;;;7.70;5.00;;;;;;;13.62;58.77;98881.86;435481;1253;99564;-41
2023/05/22 00:41:55;;;;;;;4.70;3.90;;;;;;;13.19;59.15;98877.09;435443;1250;112597;-42
2023/05/22 00:51:59;;;;;;;6.70;4.30;;;;;;;12.61;59.81;98878.73;435472;1253;108307;-43
2023/05/22 01:02:02;;;;;;;5.60;4.40;;;;;;;12.02;60.37;98873.31;435345;1255;99246;-42
2023/05/22 01:12:13;;;;;;;6.70;4.60;;;;;;;11.70;61.54;98868.34;435316;1253;108304;-42
2023/05/22 01:22:21;;;;;;;10.80;4.90;;;;;;;11.56;62.41;98869.02;435255;1254;99250;-42
2023/05/22 01:32:28;;;;;;;9.80;7.70;;;;;;;11.40;63.07;98871.36;437216;1253;111454;-43
2023/05/22 01:42:32;;;;;;;8.50;6.40;;;;;;;11.14;63.64;98871.09;436450;1254;108466;-41
2023/05/22 01:52:34;;;;;;;13.90;8.40;;;;;;;10.89;64.00;98868.52;436243;1254;99218;-42
2023/05/22 02:02:42;;;;;;;11.90;8.10;;;;;;;10.54;64.29;98877.27;436394;1251;108236;-41
2023/05/22 02:12:46;;;;;;;14.50;9.10;;;;;;;10.39;64.96;98870.41;436387;1254;99316;-41
2023/05/22 02:22:49;;;;;;;17.90;9.30;;;;;;;10.29;65.50;98868.95;436414;1254;111350;-42
2023/05/22 02:42:57;;;;;;;20.10;11.20;;;;;;;9.75;66.24;98869.64;436376;1254;99126;-42
2023/05/22 02:53:00;;;;;;;15.00;10.20;;;;;;;9.73;66.61;98857.52;436375;1253;108082;-43
2023/05/22 03:03:04;;;;;;;25.90;11.70;;;;;;;9.77;66.94;98849.98;436286;1251;98018;-41
2023/05/22 03:13:08;;;;;;;19.20;10.80;;;;;;;9.87;67.03;98850.08;436418;1251;111177;-42
2023/05/22 03:33:14;;;;;;;12.90;7.90;;;;;;;11.04;66.91;98845.08;436608;1251;99246;-43
2023/05/22 03:43:17;;;;;;;14.60;8.30;;;;;;;13.02;66.26;98839.11;436078;1251;475043;-42
2023/05/22 03:53:21;;;;;;;13.60;5.50;;;;;;;15.09;64.79;98831.59;436456;1251;99218;-42
2023/05/22 04:03:24;;;;;;;9.70;4.70;;;;;;;16.73;63.24;98828.27;436384;1248;111898;-42
2023/05/22 04:13:30;;;;;;;6.50;4.80;;;;;;;18.27;61.19;98828.27;436433;1248;109341;-42
2023/05/22 04:23:34;;;;;;;4.60;4.00;;;;;;;18.75;58.93;98825.06;436553;1251;99212;-43
2023/05/22 04:33:38;;;;;;;5.40;4.30;;;;;;;19.15;56.65;98829.69;436390;1248;108432;-42
2023/05/22 04:43:42;;;;;;;6.20;5.10;;;;;;;19.02;55.29;98831.09;436259;1248;99305;-42
2023/05/22 04:53:48;;;;;;;8.30;5.00;;;;;;;17.93;55.04;98834.20;436316;1248;111421;-42
2023/05/22 05:03:52;;;;;;;6.20;4.70;;;;;;;18.69;54.30;98832.96;436516;1251;106994;-42
2023/05/22 05:13:56;;;;;;;6.20;4.40;;;;;;;18.62;52.96;98826.52;436470;1251;98017;-43
2023/05/22 05:24:00;;;;;;;9.80;4.90;;;;;;;19.00;52.35;98828.73;436423;1251;109248;-43
2023/05/22 05:34:04;;;;;;;6.30;4.90;;;;;;;18.88;51.97;98831.70;436507;1247;99230;-43
2023/05/22 05:44:08;;;;;;;10.40;5.30;;;;;;;18.53;51.67;98835.94;436426;1248;113408;-43
2023/05/22 05:54:11;;;;;;;8.00;4.70;;;;;;;19.00;51.77;98828.15;436314;1251;108332;-41
2023/05/22 06:04:15;;;;;;;10.30;5.40;;;;;;;19.75;51.05;98825.15;436538;1248;98575;-43
2023/05/22 06:14:19;;;;;;;19.30;6.40;;;;;;;20.42;50.69;98825.91;436527;1250;107374;-43
2023/05/22 06:24:23;;;;;;;10.70;5.60;;;;;;;21.15;49.96;98826.73;436426;1248;98005;-41
2023/05/22 06:34:28;;;;;;;9.00;5.20;;;;;;;21.36;48.95;98821.94;436618;1251;111386;-41
2023/05/22 06:44:32;;;;;;;8.40;5.10;;;;;;;22.12;47.98;98815.83;436367;1247;107840;-41
2023/05/22 06:54:35;;;;;;;7.00;4.60;;;;;;;22.06;46.12;98818.02;436430;1248;99228;-41
2023/05/22 07:04:38;;;;;;;12.80;4.70;;;;;;;22.47;45.28;98818.30;436499;1247;108436;-42
2023/05/22 07:14:42;;;;;;;12.10;4.80;;;;;;;22.61;43.61;98810.64;436353;1247;99221;-43
2023/05/22 07:24:46;;;;;;;7.20;3.80;;;;;;;22.67;41.92;98808.34;436414;1248;111161;-42
2023/05/22 07:34:50;;;;;;;11.60;3.10;;;;;;;22.04;40.33;98814.67;436320;1251;109117;-41
2023/05/22 07:44:53;;;;;;;8.60;4.00;;;;;;;21.96;39.60;98816.48;436274;1247;99329;-42
2023/05/22 07:54:57;;;;;;;5.00;2.50;;;;;;;21.98;39.33;98811.04;436299;1248;107436;-42
2023/05/22 08:05:03;;;;;;;7.20;3.60;;;;;;;21.94;39.20;98811.11;436513;1247;99356;-40
2023/05/22 08:15:08;;;;;;;7.20;3.00;;;;;;;21.90;38.29;98808.27;436552;1251;112035;-42
2023/05/22 08:25:12;;;;;;;3.90;2.80;;;;;;;21.90;37.43;98804.06;436455;1248;107599;-43
2023/05/22 08:35:16;;;;;;;3.70;3.10;;;;;;;21.63;37.25;98811.08;436369;1247;98001;-41
2023/05/22 08:45:21;;;;;;;3.80;2.70;;;;;;;21.83;37.37;98811.68;436474;1247;108219;-44
2023/05/22 08:55:25;;;;;;;10.50;3.20;;;;;;;21.68;36.82;98806.11;436524;1249;99206;-44
2023/05/22 09:05:30;;;;;;;4.00;3.10;;;;;;;21.50;37.81;98801.41;436541;1251;112514;-44
2023/05/22 09:15:34;;;;;;;6.40;3.40;;;;;;;21.78;38.33;98799.77;436272;1247;107647;-43
2023/05/22 09:25:38;;;;;;;9.20;3.50;;;;;;;21.75;38.25;98798.05;436488;1247;99233;-43
2023/05/22 09:45:46;;;;;;;4.30;3.00;;;;;;;21.85;38.51;98784.21;436429;1247;101467;-43
2023/05/22 09:55:52;;;;;;;5.20;3.40;;;;;;;22.14;37.88;98774.58;436563;1247;111172;-43
2023/05/22 10:05:57;;;;;;;8.70;3.10;;;;;;;21.64;37.49;98769.73;436465;1251;107794;-41
2023/05/22 10:16:03;;;;;;;5.80;3.30;;;;;;;21.50;37.81;98770.23;436426;1251;99323;-42
2023/05/22 10:26:07;;;;;;;5.80;3.30;;;;;;;21.86;37.81;98759.52;436494;1247;107928;-44
2023/05/22 10:36:19;;;;;;;4.90;2.80;;;;;;;22.24;38.01;98751.43;436465;1248;98834;-42
2023/05/22 10:56:31;;;;;;;5.20;3.20;;;;;;;22.07;37.58;98740.69;436391;1247;107232;-44
2023/05/22 11:06:35;;;;;;;6.20;3.80;;;;;;;22.23;37.37;98727.67;436439;1247;99247;-42
2023/05/22 11:16:39;;;;;;;7.90;3.90;;;;;;;22.32;36.78;98722.36;436548;1251;109239;-43
2023/05/22 11:26:44;;;;;;;4.20;3.10;;;;;;;22.66;37.04;98711.05;436493;1247;99260;-43
2023/05/22 11:36:48;;;;;;;6.90;3.50;;;;;;;22.53;37.05;98714.82;436445;1250;112195;-44
2023/05/22 11:46:53;;;;;;;7.20;3.50;;;;;;;22.52;37.83;98704.08;436590;1247;107821;-42
2023/05/22 11:56:57;;;;;;;9.60;3.50;;;;;;;22.64;37.99;98695.70;436515;1251;99345;-42
2023/05/22 12:07:01;;;;;;;5.40;3.40;;;;;;;22.85;37.13;98692.14;436380;1247;109146;-43
2023/05/22 12:27:07;;;;;;;4.50;3.10;;;;;;;22.97;36.17;98691.70;436569;1248;111607;-41
2023/05/22 12:37:21;;;;;;;8.40;3.60;;;;;;;22.85;36.10;98685.38;436434;1247;106738;-43
2023/05/22 12:47:25;;;;;;;5.60;3.00;;;;;;;22.68;36.17;98671.55;436596;1247;98059;-44
2023/05/22 12:57:29;;;;;;;6.30;4.00;;;;;;;22.65;35.89;98657.68;436536;1247;107337;-43
2023/05/22 13:07:33;;;;;;;4.80;2.90;;;;;;;22.60;36.00;98652.14;436700;1251;99231;-43
2023/05/22 13:17:37;;;;;;;7.10;3.10;;;;;;;22.72;36.08;98647.30;436473;1248;111725;-43
2023/05/22 13:27:41;;;;;;;3.80;3.30;;;;;;;22.49;35.63;98648.52;436419;1247;107368;-44
2023/05/22 13:37:45;;;;;;;5.90;3.30;;;;;;;22.40;36.15;98636.93;436589;1247;99702;-43
2023/05/22 13:47:50;;;;;;;10.00;3.90;;;;;;;22.34;36.42;98640.33;436556;1251;108750;-43
2023/05/22 13:57:54;;;;;;;6.20;3.70;;;;;;;22.21;36.58;98635.79;436481;1247;99230;-42
2023/05/22 14:07:58;;;;;;;8.80;2.70;;;;;;;22.02;36.31;98625.81;436429;1247;113172;-42
2023/05/22 14:18:01;;;;;;;6.10;3.00;;;;;;;22.00;36.61;98610.70;436157;1247;108293;-41
2023/05/22 14:28:05;;;;;;;4.50;2.50;;;;;;;22.19;36.23;98602.15;436493;1247;99356;-47
2023/05/22 14:38:10;;;;;;;3.30;2.90;;;;;;;22.29;36.22;98601.66;436400;1248;107016;-43
2023/05/22 14:48:14;;;;;;;7.40;3.20;;;;;;;22.27;35.35;98595.63;436497;1247;99218;-42
2023/05/22 14:58:18;;;;;;;7.30;3.50;;;;;;;22.10;35.66;98596.00;436450;1247;112210;-41
2023/05/22 15:08:22;;;;;;;6.70;3.10;;;;;;;21.80;35.89;98594.22;436421;1251;107916;-41
2023/05/22 15:28:29;;;;;;;6.90;3.60;;;;;;;21.41;36.17;98578.55;436448;1252;108200;-43
2023/05/22 15:38:34;;;;;;;5.80;3.20;;;;;;;21.42;36.61;98568.52;436426;1251;97982;-41
2023/05/22 15:48:38;;;;;;;7.10;3.30;;;;;;;21.51;36.46;98562.55;436117;1247;410090;-42
2023/05/22 15:58:41;;;;;;;4.60;3.50;;;;;;;21.53;36.29;98559.95;436460;1247;108288;-43
2023/05/22 16:08:45;;;;;;;5.00;3.10;;;;;;;21.34;36.57;98549.52;436502;1247;99104;-42
2023/05/22 16:18:49;;;;;;;11.20;3.90;;;;;;;21.16;37.09;98544.99;436349;1247;108570;-42
2023/05/22 16:28:53;;;;;;;4.80;4.00;;;;;;;20.84;37.41;98549.17;436434;1247;99243;-42
2023/05/22 16:38:57;;;;;;;5.30;3.90;;;;;;;20.69;38.02;98551.08;436411;1247;111257;-43
2023/05/22 16:49:01;;;;;;;7.30;3.90;;;;;;;20.60;38.41;98548.08;436509;1247;107235;-42
2023/05/22 16:59:05;;;;;;;6.40;3.80;;;;;;;20.39;38.92;98545.52;436626;1247;98244;-44
2023/05/22 17:09:09;;;;;;;7.20;3.20;;;;;;;20.22;39.40;98548.77;436500;1247;108800;-43
2023/05/22 17:19:12;;;;;;;5.20;3.70;;;;;;;20.11;40.18;98550.77;436529;1247;99224;-43
2023/05/22 17:39:20;;;;;;;7.60;4.60;;;;;;;19.95;40.87;98553.63;436431;1247;108097;-42
2023/05/22 17:49:24;;;;;;;6.20;4.20;;;;;;;19.82;41.24;98556.77;436396;1247;99333;-42
2023/05/22 17:59:28;;;;;;;7.40;3.90;;;;;;;19.54;41.54;98548.41;436398;1252;109587;-42
2023/05/22 18:19:35;;;;;;;5.70;4.10;;;;;;;19.06;42.41;98541.30;436548;1247;113249;-45
2023/05/22 18:29:39;;;;;;;8.70;4.40;;;;;;;18.77;42.77;98539.71;436538;1247;107331;-42
2023/05/22 18:39:42;;;;;;;9.20;4.80;;;;;;;18.37;43.52;98543.42;436506;1247;99219;-42
2023/05/22 18:49:46;;;;;;;7.30;4.90;;;;;;;17.93;44.32;98546.19;436416;1247;108470;-42
2023/05/22 18:59:50;;;;;;;9.20;5.20;;;;;;;17.41;45.17;98544.96;436432;1253;98910;-42
2023/05/22 19:09:54;;;;;;;6.30;5.00;;;;;;;16.83;46.32;98537.50;436504;1247;112115;-42
2023/05/22 19:19:57;;;;;;;14.30;6.00;;;;;;;16.36;47.61;98547.30;436429;1248;106259;-41
2023/05/22 19:30:01;;;;;;;13.00;6.80;;;;;;;15.94;48.64;98543.86;436426;1247;99222;-42
2023/05/22 19:40:08;;;;;;;13.60;6.70;;;;;;;15.58;49.85;98544.02;436383;1248;108643;-42
2023/05/22 19:50:12;;;;;;;11.90;8.00;;;;;;;15.26;50.96;98544.36;436393;1261;99218;-42
2023/05/22 20:00:18;;;;;;;15.10;7.20;;;;;;;14.97;51.79;98547.27;436423;1251;111140;-43
2023/05/22 20:10:22;;;;;;;13.50;7.10;;;;;;;14.70;52.47;98548.59;436332;1247;108707;-42
2023/05/22 20:20:26;;;;;;;17.20;7.50;;;;;;;14.47;53.52;98548.77;436455;1253;99224;-42
2023/05/22 20:30:30;;;;;;;20.80;11.00;;;;;;;14.32;54.37;98541.52;436476;1253;107563;-43
2023/05/22 20:40:33;;;;;;;18.40;10.90;;;;;;;14.13;55.05;98535.85;436417;1254;99244;-42
2023/05/22 20:50:37;;;;;;;18.10;11.90;;;;;;;13.74;55.67;98534.19;436409;1253;112081;-43
2023/05/22 21:00:44;;;;;;;18.30;10.10;;;;;;;13.57;56.34;98531.81;436236;1253;107460;-41
2023/05/22 21:10:48;;;;;;;16.60;9.20;;;;;;;13.56;57.08;98528.70;436294;1254;99208;-43
2023/05/22 21:20:51;;;;;;;10.20;7.80;;;;;;;13.64;57.47;98529.69;436346;1261;108264;-43
2023/05/22 21:30:56;;;;;;;11.90;7.10;;;;;;;13.97;57.41;98527.84;436625;1254;99237;-42
2023/05/22 21:41:00;;;;;;;11.90;6.90;;;;;;;14.26;57.40;98528.65;436472;1252;111447;-42
2023/05/22 21:51:03;;;;;;;12.40;7.40;;;;;;;14.32;57.14;98531.40;436393;1254;108905;-42
2023/05/22 22:01:08;;;;;;;11.80;8.40;;;;;;;14.29;57.37;98538.09;436466;1254;99207;-44
2023/05/22 22:11:12;;;;;;;11.50;8.70;;;;;;;14.07;57.42;98534.68;436390;1253;108210;-42
2023/05/22 22:21:16;;;;;;;14.30;8.50;;;;;;;13.72;57.78;98529.66;436459;1253;99240;-43
2023/05/22 22:31:20;;;;;;;12.10;7.20;;;;;;;13.45;58.46;98519.20;436394;1253;111452;-42
2023/05/22 22:41:24;;;;;;;14.00;7.20;;;;;;;13.17;59.08;98507.70;436503;1252;107127;-43
2023/05/22 23:01:32;;;;;;;13.20;7.50;;;;;;;12.39;59.96;98501.81;436489;1251;109246;-42
2023/05/22 23:11:36;;;;;;;10.30;7.10;;;;;;;12.09;60.65;98495.57;436353;1261;99317;-41
2023/05/22 23:21:41;;;;;;;13.00;8.00;;;;;;;12.28;61.02;98490.79;436403;1252;111746;-42
2023/05/22 23:31:46;;;;;;;12.50;8.80;;;;;;;12.64;61.43;98473.72;436386;1261;108405;-43
2023/05/22 23:41:53;;;;;;;10.80;7.80;;;;;;;12.94;61.23;98460.59;436491;1248;98832;-42
